createdAt,value
2018-06-08T00:00:53.321Z,32.67
2018-06-08T00:03:21.397Z,30.23
2018-06-08T00:05:49.700Z,34.57
2018-06-08T00:08:18.025Z,36.83
2018-06-08T00:10:46.360Z,32.17
2018-06-08T00:13:14.707Z,33.13
2018-06-08T00:15:43.082Z,31.73
2018-06-08T00:18:11.492Z,29.73
2018-06-08T00:20:39.885Z,31.03
2018-06-08T00:23:08.249Z,34.13
2018-06-08T00:25:36.569Z,36.17
2018-06-08T00:28:04.890Z,40.13
2018-06-08T00:30:33.223Z,39.43
2018-06-08T00:33:01.555Z,41.13
2018-06-08T00:35:29.867Z,45.67
2018-06-08T00:37:58.202Z,43.70
2018-06-08T00:40:27.548Z,34.07
2018-06-08T00:42:55.834Z,38.57
2018-06-08T00:45:24.135Z,40.30
2018-06-08T00:47:52.431Z,32.43
2018-06-08T00:50:20.758Z,34.20
2018-06-08T00:52:49.079Z,32.53
2018-06-08T00:55:17.372Z,32.37
2018-06-08T00:57:45.775Z,29.57
2018-06-08T01:00:14.077Z,29.43
2018-06-08T01:02:42.381Z,30.43
2018-06-08T01:05:10.630Z,32.90
2018-06-08T01:07:38.961Z,37.93
2018-06-08T01:10:07.300Z,34.40
2018-06-08T01:12:35.577Z,33.00
2018-06-08T01:15:03.925Z,34.47
2018-06-08T01:17:32.218Z,40.60
2018-06-08T01:20:00.518Z,44.23
2018-06-08T01:22:28.831Z,37.63
2018-06-08T01:24:57.136Z,48.73
2018-06-08T01:27:25.452Z,45.53
2018-06-08T01:29:53.740Z,43.87
2018-06-08T01:32:22.026Z,43.87
2018-06-08T01:34:50.365Z,49.67
2018-06-08T01:37:18.693Z,49.27
2018-06-08T01:39:47.116Z,46.60
2018-06-08T01:42:15.424Z,53.20
2018-06-08T01:44:43.744Z,55.80
2018-06-08T01:47:12.041Z,49.83
2018-06-08T01:49:40.135Z,51.73
2018-06-08T01:52:08.512Z,50.43
2018-06-08T01:54:36.850Z,44.83
2018-06-08T01:57:05.188Z,45.50
2018-06-08T01:59:35.218Z,42.00
2018-06-08T02:02:03.954Z,39.67
2018-06-08T02:04:32.241Z,40.70
2018-06-08T02:07:00.273Z,33.37
2018-06-08T02:09:28.598Z,33.30
2018-06-08T02:11:56.901Z,36.47
2018-06-08T02:14:25.230Z,36.30
2018-06-08T02:16:53.562Z,38.77
2018-06-08T02:19:23.070Z,42.83
2018-06-08T02:21:51.393Z,48.07
2018-06-08T02:24:19.740Z,51.60
2018-06-08T02:26:48.047Z,56.80
2018-06-08T02:29:16.437Z,49.17
2018-06-08T02:31:44.746Z,45.93
2018-06-08T02:34:12.775Z,53.47
2018-06-08T02:36:41.128Z,56.90
2018-06-08T02:39:09.522Z,52.70
2018-06-08T02:41:37.866Z,57.40
2018-06-08T02:44:06.155Z,53.07
2018-06-08T02:46:34.443Z,56.93
2018-06-08T02:49:02.737Z,61.70
2018-06-08T02:51:31.039Z,57.40
2018-06-08T02:53:59.371Z,59.07
2018-06-08T02:56:27.665Z,60.60
2018-06-08T02:58:56.000Z,58.27
2018-06-08T03:01:24.332Z,58.60
2018-06-08T03:03:52.649Z,64.53
2018-06-08T03:06:21.003Z,59.93
2018-06-08T03:08:49.320Z,66.03
2018-06-08T03:11:17.673Z,67.43
2018-06-08T03:13:45.979Z,65.50
2018-06-08T03:16:14.285Z,71.67
2018-06-08T03:18:42.590Z,66.80
2018-06-08T03:21:10.901Z,64.83
2018-06-08T03:23:39.219Z,63.13
2018-06-08T03:26:07.494Z,67.57
2018-06-08T03:28:35.791Z,65.00
2018-06-08T03:31:04.125Z,61.90
2018-06-08T03:33:32.435Z,70.40
2018-06-08T03:36:00.778Z,72.00
2018-06-08T03:38:29.047Z,68.70
2018-06-08T03:40:57.334Z,64.83
2018-06-08T03:43:25.643Z,67.17
2018-06-08T03:45:53.950Z,65.47
2018-06-08T03:48:22.271Z,70.03
2018-06-08T03:50:50.562Z,65.03
2018-06-08T03:53:18.843Z,71.40
2018-06-08T03:55:47.146Z,69.97
2018-06-08T03:58:15.426Z,69.93
2018-06-08T04:00:43.739Z,69.63
2018-06-08T04:03:12.074Z,72.57
2018-06-08T04:05:40.400Z,66.80
2018-06-08T04:08:08.747Z,61.97
2018-06-08T04:10:37.071Z,62.37
2018-06-08T04:13:05.434Z,60.50
2018-06-08T04:15:33.765Z,62.73
2018-06-08T04:18:02.109Z,65.53
2018-06-08T04:20:30.422Z,61.30
2018-06-08T04:22:58.716Z,60.07
2018-06-08T04:25:27.063Z,61.87
2018-06-08T04:27:55.355Z,57.07
2018-06-08T04:30:23.654Z,54.10
2018-06-08T04:32:52.012Z,58.83
2018-06-08T04:35:20.322Z,57.23
2018-06-08T04:37:48.636Z,60.50
2018-06-08T04:40:16.961Z,56.47
2018-06-08T04:42:45.244Z,53.10
2018-06-08T04:45:13.578Z,55.90
2018-06-08T04:47:41.893Z,54.40
2018-06-08T04:50:10.200Z,49.30
2018-06-08T04:52:38.525Z,51.37
2018-06-08T04:55:06.825Z,51.60
2018-06-08T04:57:35.109Z,51.83
2018-06-08T05:00:03.400Z,48.80
2018-06-08T05:02:31.731Z,48.17
2018-06-08T05:05:00.037Z,47.83
2018-06-08T05:07:28.366Z,46.77
2018-06-08T05:09:56.723Z,50.83
2018-06-08T05:12:25.141Z,48.93
2018-06-08T05:14:53.460Z,44.90
2018-06-08T05:17:21.764Z,50.63
2018-06-08T05:19:50.073Z,46.83
2018-06-08T05:22:18.398Z,44.37
2018-06-08T05:24:46.749Z,42.13
2018-06-08T05:27:15.075Z,43.90
2018-06-08T05:29:43.451Z,44.77
2018-06-08T05:32:11.793Z,38.90
2018-06-08T05:34:40.398Z,42.40
2018-06-08T05:37:08.696Z,41.20
2018-06-08T05:39:37.048Z,39.47
2018-06-08T05:42:05.370Z,44.43
2018-06-08T05:44:33.402Z,39.53
2018-06-08T05:47:01.697Z,43.77
2018-06-08T05:49:30.011Z,36.67
2018-06-08T05:51:58.390Z,38.17
2018-06-08T05:54:26.700Z,38.90
2018-06-08T05:56:55.035Z,41.57
2018-06-08T05:59:23.376Z,40.33
2018-06-08T06:01:51.769Z,44.17
2018-06-08T06:04:20.085Z,44.27
2018-06-08T06:06:48.397Z,41.00
2018-06-08T06:09:16.716Z,43.63
2018-06-08T06:11:45.143Z,37.70
2018-06-08T06:14:13.450Z,39.53
2018-06-08T06:16:41.743Z,40.00
2018-06-08T06:19:10.028Z,42.00
2018-06-08T06:21:38.603Z,37.43
2018-06-08T06:24:06.940Z,41.63
2018-06-08T06:26:35.225Z,41.73
2018-06-08T06:29:03.541Z,41.10
2018-06-08T06:31:31.871Z,47.47
2018-06-08T06:34:00.210Z,44.83
2018-06-08T06:36:29.147Z,40.80
2018-06-08T06:38:57.472Z,37.73
2018-06-08T06:41:25.782Z,37.20
2018-06-08T06:43:54.101Z,37.93
2018-06-08T06:46:22.436Z,40.53
2018-06-08T06:48:50.764Z,44.33
2018-06-08T06:51:19.137Z,46.93
2018-06-08T06:53:47.451Z,51.13
2018-06-08T06:56:15.741Z,43.27
2018-06-08T06:58:44.064Z,45.23
2018-06-08T07:01:12.391Z,37.53
2018-06-08T07:03:40.733Z,36.70
2018-06-08T07:06:09.052Z,38.10
2018-06-08T07:08:37.461Z,40.83
2018-06-08T07:11:06.652Z,37.90
2018-06-08T07:13:34.999Z,34.20
2018-06-08T07:16:03.288Z,30.77
2018-06-08T07:18:32.263Z,31.00
2018-06-08T07:21:00.550Z,33.77
2018-06-08T07:23:28.846Z,33.77
2018-06-08T07:25:57.509Z,29.87
2018-06-08T07:28:25.926Z,30.60
2018-06-08T07:30:54.873Z,30.87
2018-06-08T07:33:23.211Z,29.80
2018-06-08T07:35:51.542Z,26.87
2018-06-08T07:38:19.899Z,28.10
2018-06-08T07:40:48.191Z,28.53
2018-06-08T07:43:16.499Z,29.80
2018-06-08T07:45:44.805Z,30.93
2018-06-08T07:48:13.211Z,27.63
2018-06-08T07:50:41.583Z,34.03
2018-06-08T07:53:09.888Z,30.57
2018-06-08T07:55:38.274Z,31.50
2018-06-08T07:58:06.592Z,27.27
2018-06-08T08:00:34.915Z,25.67
2018-06-08T08:03:03.237Z,34.97
2018-06-08T08:05:31.515Z,28.13
2018-06-08T08:07:59.860Z,27.83
2018-06-08T08:10:28.261Z,28.27
2018-06-08T08:12:56.577Z,28.90
2018-06-08T08:15:24.967Z,32.07
2018-06-08T08:17:53.267Z,30.63
2018-06-08T08:20:22.063Z,31.07
2018-06-08T08:22:50.417Z,28.20
2018-06-08T08:25:18.698Z,31.30
2018-06-08T08:27:47.013Z,32.70
2018-06-08T08:30:15.374Z,29.50
2018-06-08T08:32:43.731Z,30.57
2018-06-08T08:35:12.057Z,26.03
2018-06-08T08:37:40.424Z,29.90
2018-06-08T08:40:08.772Z,30.70
2018-06-08T08:42:37.097Z,29.00
2018-06-08T08:45:05.490Z,29.37
2018-06-08T08:47:33.838Z,31.90
2018-06-08T08:50:02.176Z,28.27
2018-06-08T08:52:30.476Z,30.93
2018-06-08T08:54:58.798Z,31.70
2018-06-08T08:57:27.133Z,26.67
2018-06-08T08:59:55.449Z,30.70
2018-06-08T09:02:23.816Z,25.43
2018-06-08T09:04:52.167Z,26.43
2018-06-08T09:07:20.473Z,25.27
2018-06-08T09:09:48.837Z,24.97
2018-06-08T09:12:17.229Z,25.20
2018-06-08T09:14:45.680Z,26.17
2018-06-08T09:17:14.093Z,26.73
2018-06-08T09:19:42.413Z,25.63
2018-06-08T09:22:10.794Z,27.23
2018-06-08T09:24:39.208Z,23.40
2018-06-08T09:27:07.503Z,22.90
2018-06-08T09:29:35.856Z,22.50
2018-06-08T09:32:04.239Z,22.90
2018-06-08T09:34:32.556Z,22.97
2018-06-08T09:37:00.913Z,25.00
2018-06-08T09:39:29.256Z,21.57
2018-06-08T09:41:57.682Z,19.63
2018-06-08T09:44:26.050Z,17.00
2018-06-08T09:46:54.476Z,21.53
2018-06-08T09:49:22.860Z,19.73
2018-06-08T09:51:51.169Z,21.80
2018-06-08T09:54:19.544Z,23.30
2018-06-08T09:56:47.860Z,21.47
2018-06-08T09:59:16.526Z,20.67
2018-06-08T10:01:44.871Z,22.37
2018-06-08T10:04:13.183Z,21.67
2018-06-08T10:06:41.543Z,20.63
2018-06-08T10:09:09.962Z,19.23
2018-06-08T10:11:38.313Z,18.10
2018-06-08T10:14:06.735Z,23.90
2018-06-08T10:16:35.151Z,17.93
2018-06-08T10:19:03.534Z,18.60
2018-06-08T10:21:31.865Z,18.20
2018-06-08T10:24:00.190Z,18.60
2018-06-08T10:26:28.919Z,15.30
2018-06-08T10:28:57.306Z,15.00
2018-06-08T10:31:25.673Z,16.60
2018-06-08T10:33:54.109Z,16.10
2018-06-08T10:36:22.490Z,15.83
2018-06-08T10:38:50.873Z,16.87
2018-06-08T10:41:19.250Z,19.40
2018-06-08T10:43:47.665Z,18.30
2018-06-08T10:46:16.051Z,17.77
2018-06-08T10:48:44.405Z,18.90
2018-06-08T10:51:12.798Z,16.87
2018-06-08T10:53:41.254Z,22.23
2018-06-08T10:56:09.628Z,20.23
2018-06-08T10:58:38.945Z,17.50
2018-06-08T11:01:07.299Z,21.53
2018-06-08T11:03:35.669Z,20.03
2018-06-08T11:06:04.045Z,20.70
2018-06-08T11:08:32.425Z,20.93
2018-06-08T11:11:00.812Z,27.60
2018-06-08T11:13:29.127Z,27.27
2018-06-08T11:15:57.517Z,26.63
2018-06-08T11:18:25.929Z,22.90
2018-06-08T11:20:54.318Z,22.13
2018-06-08T11:23:22.673Z,23.37
2018-06-08T11:25:51.036Z,22.17
2018-06-08T11:28:19.490Z,20.63
2018-06-08T11:30:47.902Z,19.90
2018-06-08T11:33:16.304Z,23.07
2018-06-08T11:35:44.636Z,25.07
2018-06-08T11:38:12.965Z,24.00
2018-06-08T11:40:41.357Z,26.50
2018-06-08T11:43:09.718Z,29.67
2018-06-08T11:45:38.060Z,28.00
2018-06-08T11:48:06.415Z,27.93
2018-06-08T11:50:34.772Z,25.97
2018-06-08T11:53:03.156Z,26.73
2018-06-08T11:55:31.685Z,23.23
2018-06-08T11:58:00.077Z,26.40
2018-06-08T12:00:29.305Z,27.10
2018-06-08T12:02:57.649Z,30.50
2018-06-08T12:05:25.994Z,29.60
2018-06-08T12:07:54.336Z,28.23
2018-06-08T12:10:23.237Z,27.20
2018-06-08T12:12:51.578Z,31.93
2018-06-08T12:15:19.936Z,22.47
2018-06-08T12:17:48.287Z,19.63
2018-06-08T12:20:16.660Z,24.43
2018-06-08T12:22:45.038Z,23.50
2018-06-08T12:25:13.366Z,24.43
2018-06-08T12:27:41.701Z,23.10
2018-06-08T12:30:10.055Z,23.47
2018-06-08T12:32:38.410Z,22.07
2018-06-08T12:35:06.802Z,24.57
2018-06-08T12:37:35.156Z,20.77
2018-06-08T12:40:03.543Z,27.83
2018-06-08T12:42:31.986Z,25.47
2018-06-08T12:45:00.344Z,21.13
2018-06-08T12:47:28.797Z,22.33
2018-06-08T12:49:57.173Z,23.20
2018-06-08T12:52:25.605Z,24.63
2018-06-08T12:54:53.946Z,25.07
2018-06-08T12:57:22.806Z,23.30
2018-06-08T12:59:51.864Z,24.60
2018-06-08T13:02:20.193Z,24.30
2018-06-08T13:04:48.551Z,24.80
2018-06-08T13:07:17.650Z,23.77
2018-06-08T13:09:46.017Z,24.00
2018-06-08T13:12:14.969Z,25.80
2018-06-08T13:14:43.342Z,22.53
2018-06-08T13:17:11.720Z,25.67
2018-06-08T13:19:40.101Z,22.90
2018-06-08T13:22:08.428Z,25.90
2018-06-08T13:24:36.846Z,26.63
2018-06-08T13:27:05.352Z,26.77
2018-06-08T13:29:33.750Z,25.70
2018-06-08T13:32:02.121Z,26.03
2018-06-08T13:34:30.171Z,26.63
2018-06-08T13:36:58.970Z,27.70
2018-06-08T13:39:27.378Z,28.70
2018-06-08T13:41:55.771Z,31.00
2018-06-08T13:44:24.627Z,24.73
2018-06-08T13:46:52.969Z,25.67
2018-06-08T13:49:21.389Z,27.33
2018-06-08T13:51:49.741Z,23.57
2018-06-08T13:54:18.109Z,27.53
2018-06-08T13:56:46.504Z,25.17
2018-06-08T13:59:14.893Z,36.77
2018-06-08T14:01:44.207Z,25.13
2018-06-08T14:04:12.585Z,27.50
2018-06-08T14:06:41.092Z,28.93
2018-06-08T14:09:09.504Z,30.73
2018-06-08T14:11:37.918Z,32.57
2018-06-08T14:14:06.420Z,34.40
2018-06-08T14:16:34.928Z,31.60
2018-06-08T14:19:03.375Z,36.90
2018-06-08T14:21:32.469Z,31.33
2018-06-08T14:24:00.851Z,34.77
2018-06-08T14:26:29.244Z,31.67
2018-06-08T14:28:57.604Z,37.40
2018-06-08T14:31:26.039Z,35.63
2018-06-08T14:33:54.380Z,34.00
2018-06-08T14:36:22.715Z,37.40
2018-06-08T14:38:51.626Z,36.17
2018-06-08T14:41:20.005Z,37.63
2018-06-08T14:43:48.410Z,39.90
2018-06-08T14:46:16.494Z,35.43
2018-06-08T14:48:44.863Z,38.07
2018-06-08T14:51:13.222Z,38.30
2018-06-08T14:53:41.561Z,37.33
2018-06-08T14:56:09.988Z,33.97
2018-06-08T14:58:38.364Z,36.87
2018-06-08T15:01:07.505Z,37.67
2018-06-08T15:03:35.896Z,38.30
2018-06-08T15:06:04.272Z,36.30
2018-06-08T15:08:32.694Z,38.57
2018-06-08T15:11:01.074Z,31.13
2018-06-08T15:13:29.415Z,32.27
2018-06-08T15:15:58.544Z,32.00
2018-06-08T15:18:27.676Z,34.10
2018-06-08T15:20:56.010Z,33.73
2018-06-08T15:23:24.372Z,36.03
2018-06-08T15:25:52.710Z,34.20
2018-06-08T15:28:21.738Z,46.33
2018-06-08T15:30:50.065Z,34.40
2018-06-08T15:33:19.361Z,32.70
2018-06-08T15:35:47.751Z,33.93
2018-06-08T15:38:16.177Z,34.20
2018-06-08T15:40:44.850Z,35.83
2018-06-08T15:43:13.186Z,33.30
2018-06-08T15:45:41.688Z,35.20
2018-06-08T15:48:10.103Z,34.23
2018-06-08T15:50:38.431Z,33.00
2018-06-08T15:53:07.588Z,32.37
2018-06-08T15:55:36.065Z,33.93
2018-06-08T15:58:04.166Z,33.80
2018-06-08T16:00:32.542Z,32.40
2018-06-08T16:03:00.986Z,32.20
2018-06-08T16:05:29.404Z,34.90
2018-06-08T16:07:57.807Z,37.73
2018-06-08T16:10:26.778Z,30.27
2018-06-08T16:12:55.742Z,29.17
2018-06-08T16:15:24.178Z,31.57
2018-06-08T16:17:52.605Z,29.27
2018-06-08T16:20:20.928Z,30.67
2018-06-08T16:22:49.322Z,31.20
2018-06-08T16:25:17.685Z,29.50
2018-06-08T16:27:46.103Z,31.40
2018-06-08T16:30:15.558Z,30.73
2018-06-08T16:32:43.949Z,33.93
2018-06-08T16:35:12.340Z,28.43
2018-06-08T16:37:40.710Z,29.00
2018-06-08T16:40:09.100Z,30.60
2018-06-08T16:42:37.450Z,31.43
2018-06-08T16:45:05.875Z,31.83
2018-06-08T16:47:34.297Z,31.90
2018-06-08T16:50:02.666Z,29.33
2018-06-08T16:52:31.677Z,32.67
2018-06-08T16:55:00.056Z,39.40
2018-06-08T16:57:28.386Z,29.07
2018-06-08T16:59:56.775Z,31.33
2018-06-08T17:02:25.113Z,31.60
2018-06-08T17:04:53.461Z,31.33
2018-06-08T17:07:22.515Z,29.40
2018-06-08T17:09:50.883Z,32.03
2018-06-08T17:12:19.266Z,31.43
2018-06-08T17:14:47.640Z,29.63
2018-06-08T17:17:16.017Z,31.10
2018-06-08T17:19:44.422Z,30.40
2018-06-08T17:22:12.811Z,31.97
2018-06-08T17:24:41.198Z,31.07
2018-06-08T17:27:12.542Z,30.33
2018-06-08T17:29:40.940Z,32.17
2018-06-08T17:32:09.339Z,31.60
2018-06-08T17:34:37.709Z,33.00
2018-06-08T17:37:06.200Z,30.23
2018-06-08T17:39:34.546Z,32.70
2018-06-08T17:42:02.916Z,34.13
2018-06-08T17:44:31.286Z,32.23
2018-06-08T17:46:59.675Z,31.27
2018-06-08T17:49:29.300Z,31.20
2018-06-08T17:51:57.632Z,31.40
2018-06-08T17:54:26.002Z,29.37
2018-06-08T17:56:54.420Z,31.00
2018-06-08T17:59:22.829Z,30.47
2018-06-08T18:01:51.247Z,32.70
2018-06-08T18:04:19.627Z,32.30
2018-06-08T18:06:48.011Z,32.27
2018-06-08T18:09:16.415Z,30.60
2018-06-08T18:11:44.821Z,30.90
2018-06-08T18:14:13.206Z,31.83
2018-06-08T18:16:41.613Z,30.13
2018-06-08T18:19:10.021Z,30.60
2018-06-08T18:21:38.462Z,32.03
2018-06-08T18:24:08.450Z,31.83
2018-06-08T18:26:36.847Z,31.53
2018-06-08T18:29:05.205Z,34.30
2018-06-08T18:31:33.635Z,34.20
2018-06-08T18:34:02.981Z,32.73
2018-06-08T18:36:32.753Z,34.10
2018-06-08T18:39:01.143Z,33.43
2018-06-08T18:41:29.914Z,35.27
2018-06-08T18:43:58.254Z,38.43
2018-06-08T18:46:26.661Z,35.40
2018-06-08T18:48:55.014Z,40.13
2018-06-08T18:51:23.487Z,35.53
2018-06-08T18:53:51.975Z,37.73
2018-06-08T18:56:20.970Z,34.90
2018-06-08T18:58:49.384Z,34.70
2018-06-08T19:01:18.122Z,33.73
2018-06-08T19:03:46.572Z,35.97
2018-06-08T19:06:14.991Z,33.00
2018-06-08T19:08:43.364Z,31.00
2018-06-08T19:11:11.780Z,32.60
2018-06-08T19:13:40.223Z,35.83
2018-06-08T19:16:08.622Z,36.80
2018-06-08T19:18:37.022Z,35.27
2018-06-08T19:21:05.411Z,35.43
2018-06-08T19:23:33.842Z,34.07
2018-06-08T19:26:02.259Z,36.30
2018-06-08T19:28:30.762Z,30.57
2018-06-08T19:30:59.106Z,31.83
2018-06-08T19:33:27.473Z,31.70
2018-06-08T19:35:55.885Z,33.67
2018-06-08T19:38:24.323Z,35.10
2018-06-08T19:40:52.734Z,37.27
2018-06-08T19:43:21.502Z,31.93
2018-06-08T19:45:49.910Z,35.30
2018-06-08T19:48:18.294Z,36.70
2018-06-08T19:50:46.708Z,33.37
2018-06-08T19:53:15.130Z,35.37
2018-06-08T19:55:43.535Z,36.47
2018-06-08T19:58:11.960Z,34.83
2018-06-08T20:00:40.410Z,31.37
2018-06-08T20:03:08.796Z,36.90
2018-06-08T20:05:37.213Z,32.40
2018-06-08T20:08:05.622Z,32.70
2018-06-08T20:10:34.035Z,34.20
2018-06-08T20:13:03.420Z,36.80
2018-06-08T20:15:31.859Z,37.70
2018-06-08T20:18:00.294Z,38.40
2018-06-08T20:20:29.026Z,37.50
2018-06-08T20:22:57.549Z,36.63
2018-06-08T20:25:25.917Z,39.47
2018-06-08T20:27:54.641Z,42.10
2018-06-08T20:30:23.052Z,38.90
2018-06-08T20:32:51.437Z,44.10
2018-06-08T20:35:19.865Z,42.63
2018-06-08T20:37:48.226Z,41.13
2018-06-08T20:40:16.678Z,42.87
2018-06-08T20:42:45.079Z,45.77
2018-06-08T20:45:13.432Z,44.13
2018-06-08T20:47:41.806Z,50.80
2018-06-08T20:50:10.186Z,46.20
2018-06-08T20:52:38.546Z,48.70
2018-06-08T20:55:06.926Z,50.57
2018-06-08T20:57:36.000Z,55.37
2018-06-08T21:00:04.458Z,49.30
2018-06-08T21:02:32.874Z,51.53
2018-06-08T21:05:01.250Z,55.87
2018-06-08T21:07:29.683Z,53.57
2018-06-08T21:09:59.004Z,54.73
2018-06-08T21:12:27.364Z,54.57
2018-06-08T21:14:55.735Z,51.47
2018-06-08T21:17:24.073Z,54.27
2018-06-08T21:19:52.424Z,54.50
2018-06-08T21:22:27.355Z,58.93
2018-06-08T21:24:55.705Z,63.00
2018-06-08T21:27:24.069Z,66.20
2018-06-08T21:29:52.430Z,60.90
2018-06-08T21:32:20.858Z,59.30
2018-06-08T21:34:50.246Z,59.80
2018-06-08T21:37:18.628Z,62.43
2018-06-08T21:39:46.998Z,66.17
2018-06-08T21:42:15.378Z,66.80
2018-06-08T21:44:43.733Z,67.23
2018-06-08T21:47:12.139Z,73.00
2018-06-08T21:49:41.797Z,72.33
2018-06-08T21:52:10.331Z,75.10
2018-06-08T21:54:38.771Z,80.73
2018-06-08T21:57:07.172Z,82.50
2018-06-08T21:59:35.601Z,77.40
2018-06-08T22:02:03.985Z,77.50
2018-06-08T22:04:32.406Z,80.53
2018-06-08T22:07:01.026Z,76.40
2018-06-08T22:09:30.485Z,84.70
2018-06-08T22:11:58.861Z,76.97
2018-06-08T22:14:27.337Z,75.27
2018-06-08T22:16:55.673Z,80.93
2018-06-08T22:19:24.013Z,81.80
2018-06-08T22:21:56.486Z,82.07
2018-06-08T22:24:34.223Z,86.63
2018-06-08T22:27:02.548Z,93.80
2018-06-08T22:29:30.886Z,85.87
2018-06-08T22:31:59.256Z,84.37
2018-06-08T22:34:28.148Z,97.57
2018-06-08T22:36:56.509Z,99.23
2018-06-08T22:39:25.509Z,88.47
2018-06-08T22:41:54.462Z,105.37
2018-06-08T22:44:23.441Z,97.07
2018-06-08T22:46:52.028Z,100.80
2018-06-08T22:49:20.987Z,100.80
2018-06-08T22:51:49.338Z,94.07
2018-06-08T22:54:17.702Z,94.33
2018-06-08T22:56:46.104Z,93.17
2018-06-08T22:59:14.771Z,97.27
2018-06-08T23:01:43.132Z,104.63
2018-06-08T23:04:11.474Z,93.53
2018-06-08T23:06:39.809Z,117.87
2018-06-08T23:09:09.133Z,121.20
2018-06-08T23:11:37.471Z,110.87
2018-06-08T23:14:05.918Z,110.97
2018-06-08T23:16:34.801Z,109.27
2018-06-08T23:19:03.233Z,119.57
2018-06-08T23:21:31.583Z,118.97
2018-06-08T23:23:59.934Z,109.67
2018-06-08T23:26:28.380Z,115.33
2018-06-08T23:28:56.815Z,115.93
2018-06-08T23:31:25.252Z,117.27
2018-06-08T23:33:53.343Z,119.83
2018-06-08T23:36:22.853Z,121.77
2018-06-08T23:38:51.281Z,125.30
2018-06-08T23:41:20.646Z,118.53
2018-06-08T23:43:49.045Z,133.67
2018-06-08T23:46:17.451Z,128.03
2018-06-08T23:48:45.840Z,132.47
2018-06-08T23:51:14.246Z,136.87
2018-06-08T23:53:42.597Z,134.10
2018-06-08T23:56:10.919Z,123.47
2018-06-08T23:58:39.280Z,128.93
